Pagrindinis puslapis
METAR-TAF:

METAR-TAF

Oro uostai :

Afjonkarahisaras, Turkija

platuma: 38-45N, ilguma: 030-32E, Aukštis: 1034 m

METAR: trūkstamas

Laikas: 00:44 (21:44 UTC)

Prognozė

Ataskaita buvo paskelbta 8 valandos ir 4 minutes, ne 13:40 UTC
Prognozė galioja nuo 08 metu 15 UTC su 08 metu 24 UTC
Vėjas 12 kt iš Vakarų/Šiaurės Vakarų
Matomumas 10 km arba daugiau
Išsisklaidę debesys ne aukštis 4000 ft
Su prošvaistėmis ne aukštis 10000 ft
Laikinai
nuo 08 metu 15 UTC su 08 metu 18 UTC
Su prošvaistėmis ne aukštis 3500 ft
Su prošvaistėmis ne aukštis 9000 ft
lietus

TAF: LTAH 081340Z 0815/0824 30012KT 9999 SCT040 BKN100 TEMPO 0815/0818 -SHRA BKN035 BKN090

Orai ataskaitas ir orų prognozės (METAR, TAF).

turimą stotys yra geltonos ir raudonos taškus žemėlapyje.

Perkelti pele per norėdami pamatyti stoties vardą.

Tada spustelėkite, norėdami matyti oro stebėjimo ir prognozės.

Norėdami pakeisti žemėlapį: spustelėkite ant žalios mygtukų su juodo kryžiaus žemyn,; žalią mygtuką su brūkšneliu, jei norite nutolinti; arba žalių rodyklių gretimoms žemėlapius.


METAR-TAF: